AFR275 ESSA-EDDH
Flight info
| Callsign | AFR275 |
|---|---|
| Flight time | 1h 27m |
| Altitude | 38000 |
| Route | NOSLI N850 ABAMA DCT GIMRU T503 MICOS N850 BOGMU BOGMU5A |
| Aircraft | A320/M-SDE3FGHIRWY/LB1 |
Departure
| Time | 2026-05-06 17:32 |
|---|---|
| Airport | Stockholm-Arlanda Airport (ESSA) |
Arrival
| Time | 2026-05-06 18:59 |
|---|---|
| Airport | Hamburg Helmut Schmidt Airport (EDDH) |
| Time | Latitude | Longitude | Altitude | Speed | Heading |
|---|---|---|---|---|---|
| 2026-05-06 17:07 | 59.64308 | 17.92938 | 115 ft | 0 kts | 30° |
| 2026-05-06 17:12 | 59.64308 | 17.92937 | 115 ft | 0 kts | 30° |
| 2026-05-06 17:21 | 59.64293 | 17.92921 | 115 ft | 3 kts | 29° |
| 2026-05-06 17:21 | 59.64275 | 17.92901 | 114 ft | 3 kts | 29° |
| 2026-05-06 17:21 | 59.64257 | 17.92881 | 111 ft | 3 kts | 29° |
| 2026-05-06 17:22 | 59.64239 | 17.92862 | 110 ft | 3 kts | 29° |
| 2026-05-06 17:22 | 59.64221 | 17.92841 | 111 ft | 3 kts | 20° |
| 2026-05-06 17:22 | 59.64201 | 17.92840 | 111 ft | 3 kts | 310° |
| 2026-05-06 17:22 | 59.64199 | 17.92841 | 111 ft | 2 kts | 296° |
| 2026-05-06 17:23 | 59.64199 | 17.92840 | 111 ft | 0 kts | 296° |
| 2026-05-06 17:25 | 59.64201 | 17.92832 | 111 ft | 2 kts | 296° |
| 2026-05-06 17:25 | 59.64214 | 17.92779 | 115 ft | 6 kts | 296° |
| 2026-05-06 17:25 | 59.64243 | 17.92665 | 113 ft | 12 kts | 296° |
| 2026-05-06 17:26 | 59.64284 | 17.92500 | 112 ft | 15 kts | 296° |
| 2026-05-06 17:26 | 59.64335 | 17.92303 | 114 ft | 17 kts | 300° |
| 2026-05-06 17:26 | 59.64399 | 17.92079 | 112 ft | 20 kts | 297° |
| 2026-05-06 17:26 | 59.64455 | 17.91953 | 113 ft | 12 kts | 351° |
| 2026-05-06 17:27 | 59.64545 | 17.91978 | 114 ft | 15 kts | 10° |
| 2026-05-06 17:27 | 59.64661 | 17.92020 | 115 ft | 19 kts | 11° |
| 2026-05-06 17:27 | 59.64802 | 17.92074 | 116 ft | 22 kts | 11° |
| 2026-05-06 17:27 | 59.64960 | 17.92132 | 116 ft | 24 kts | 10° |
| 2026-05-06 17:28 | 59.65134 | 17.92193 | 116 ft | 27 kts | 10° |
| 2026-05-06 17:28 | 59.65323 | 17.92260 | 115 ft | 29 kts | 9° |
| 2026-05-06 17:28 | 59.65527 | 17.92337 | 118 ft | 31 kts | 10° |
| 2026-05-06 17:28 | 59.65747 | 17.92414 | 120 ft | 33 kts | 11° |
| 2026-05-06 17:29 | 59.65979 | 17.92501 | 122 ft | 35 kts | 10° |
| 2026-05-06 17:29 | 59.66216 | 17.92587 | 122 ft | 29 kts | 9° |
| 2026-05-06 17:29 | 59.66389 | 17.92647 | 124 ft | 22 kts | 11° |
| 2026-05-06 17:29 | 59.66508 | 17.92626 | 122 ft | 14 kts | 339° |
| 2026-05-06 17:30 | 59.66544 | 17.92600 | 125 ft | 0 kts | 340° |
| 2026-05-06 17:30 | 59.66556 | 17.92592 | 123 ft | 3 kts | 340° |
| 2026-05-06 17:30 | 59.66597 | 17.92548 | 122 ft | 12 kts | 318° |
| 2026-05-06 17:30 | 59.66581 | 17.92358 | 124 ft | 17 kts | 209° |
| 2026-05-06 17:31 | 59.66449 | 17.92312 | 123 ft | 29 kts | 189° |
| 2026-05-06 17:31 | 59.66027 | 17.92158 | 122 ft | 95 kts | 191° |
| 2026-05-06 17:31 | 59.65193 | 17.91857 | 116 ft | 146 kts | 190° |
| 2026-05-06 17:31 | 59.64166 | 17.91493 | 632 ft | 148 kts | 187° |
| 2026-05-06 17:32 | 59.63151 | 17.91128 | 1348 ft | 148 kts | 189° |
| 2026-05-06 17:32 | 59.62139 | 17.90756 | 2028 ft | 151 kts | 191° |
| 2026-05-06 17:32 | 59.61196 | 17.89604 | 2358 ft | 177 kts | 232° |
| 2026-05-06 17:32 | 59.60511 | 17.87389 | 2678 ft | 201 kts | 236° |
| 2026-05-06 17:33 | 59.59736 | 17.84926 | 3210 ft | 217 kts | 236° |
| 2026-05-06 17:33 | 59.58923 | 17.82369 | 4049 ft | 222 kts | 237° |
| 2026-05-06 17:33 | 59.58142 | 17.79637 | 4712 ft | 239 kts | 242° |
| 2026-05-06 17:33 | 59.57344 | 17.76589 | 5268 ft | 258 kts | 243° |
| 2026-05-06 17:34 | 59.56258 | 17.73735 | 6139 ft | 266 kts | 220° |
| 2026-05-06 17:34 | 59.54651 | 17.71848 | 7039 ft | 271 kts | 209° |
| 2026-05-06 17:34 | 59.52962 | 17.70165 | 7979 ft | 273 kts | 208° |
| 2026-05-06 17:34 | 59.51253 | 17.68494 | 8914 ft | 276 kts | 208° |
| 2026-05-06 17:35 | 59.49519 | 17.66805 | 9829 ft | 279 kts | 209° |
| 2026-05-06 17:35 | 59.47748 | 17.65074 | 10390 ft | 295 kts | 209° |
| 2026-05-06 17:35 | 59.45841 | 17.63198 | 10628 ft | 318 kts | 209° |
| 2026-05-06 17:36 | 59.41723 | 17.59149 | 11756 ft | 337 kts | 209° |
| 2026-05-06 17:36 | 59.39614 | 17.57094 | 12525 ft | 340 kts | 208° |
| 2026-05-06 17:36 | 59.37484 | 17.55023 | 13292 ft | 343 kts | 208° |
| 2026-05-06 17:36 | 59.35342 | 17.52939 | 14025 ft | 345 kts | 208° |
| 2026-05-06 17:37 | 59.33176 | 17.50832 | 14700 ft | 348 kts | 209° |
| 2026-05-06 17:37 | 59.31005 | 17.48721 | 15365 ft | 350 kts | 209° |
| 2026-05-06 17:37 | 59.28814 | 17.46592 | 16027 ft | 353 kts | 209° |
| 2026-05-06 17:37 | 59.26610 | 17.44448 | 16687 ft | 355 kts | 210° |
| 2026-05-06 17:38 | 59.24393 | 17.42291 | 17376 ft | 357 kts | 210° |
| 2026-05-06 17:38 | 59.22161 | 17.40120 | 18074 ft | 360 kts | 210° |
| 2026-05-06 17:38 | 59.19912 | 17.37940 | 18707 ft | 362 kts | 210° |
| 2026-05-06 17:38 | 59.17649 | 17.35758 | 19356 ft | 364 kts | 210° |
| 2026-05-06 17:39 | 59.15374 | 17.33569 | 20027 ft | 365 kts | 210° |
| 2026-05-06 17:39 | 59.13089 | 17.31376 | 20695 ft | 367 kts | 210° |
| 2026-05-06 17:39 | 59.10793 | 17.29175 | 21333 ft | 368 kts | 211° |
| 2026-05-06 17:39 | 59.08492 | 17.26956 | 21924 ft | 370 kts | 212° |
| 2026-05-06 17:40 | 59.06336 | 17.24278 | 22498 ft | 367 kts | 222° |
| 2026-05-06 17:40 | 59.04373 | 17.21110 | 23071 ft | 368 kts | 224° |
| 2026-05-06 17:40 | 59.02406 | 17.17919 | 23615 ft | 370 kts | 223° |
| 2026-05-06 17:40 | 59.00425 | 17.14715 | 24067 ft | 371 kts | 223° |
| 2026-05-06 17:41 | 58.98432 | 17.11505 | 24531 ft | 373 kts | 223° |
| 2026-05-06 17:41 | 58.96433 | 17.08295 | 24984 ft | 374 kts | 223° |
| 2026-05-06 17:41 | 58.94434 | 17.05092 | 25426 ft | 375 kts | 223° |
| 2026-05-06 17:41 | 58.92416 | 17.01862 | 25856 ft | 376 kts | 222° |
| 2026-05-06 17:42 | 58.90396 | 16.98632 | 26293 ft | 377 kts | 222° |
| 2026-05-06 17:42 | 58.88366 | 16.95392 | 26718 ft | 379 kts | 222° |
| 2026-05-06 17:42 | 58.86332 | 16.92149 | 27144 ft | 380 kts | 222° |
| 2026-05-06 17:42 | 58.84291 | 16.88898 | 27563 ft | 381 kts | 221° |
| 2026-05-06 17:43 | 58.82238 | 16.85635 | 27979 ft | 383 kts | 221° |
| 2026-05-06 17:43 | 58.80175 | 16.82366 | 28378 ft | 384 kts | 221° |
| 2026-05-06 17:43 | 58.78132 | 16.79129 | 28779 ft | 386 kts | 221° |
| 2026-05-06 17:43 | 58.76055 | 16.75839 | 29170 ft | 387 kts | 221° |
| 2026-05-06 17:44 | 58.73942 | 16.72495 | 29532 ft | 389 kts | 221° |
| 2026-05-06 17:44 | 58.71849 | 16.69187 | 29882 ft | 391 kts | 221° |
| 2026-05-06 17:44 | 58.69778 | 16.65923 | 30327 ft | 389 kts | 220° |
| 2026-05-06 17:44 | 58.67681 | 16.62629 | 30762 ft | 388 kts | 220° |
| 2026-05-06 17:45 | 58.65597 | 16.59360 | 31190 ft | 387 kts | 220° |
| 2026-05-06 17:45 | 58.63512 | 16.56095 | 31608 ft | 386 kts | 220° |
| 2026-05-06 17:45 | 58.61433 | 16.52841 | 32033 ft | 386 kts | 220° |
| 2026-05-06 17:45 | 58.59355 | 16.49593 | 32457 ft | 385 kts | 220° |
| 2026-05-06 17:46 | 58.57278 | 16.46355 | 32872 ft | 384 kts | 220° |
| 2026-05-06 17:46 | 58.55207 | 16.43129 | 33309 ft | 384 kts | 220° |
| 2026-05-06 17:46 | 58.53137 | 16.39908 | 33741 ft | 383 kts | 220° |
| 2026-05-06 17:46 | 58.51067 | 16.36697 | 34144 ft | 383 kts | 220° |
| 2026-05-06 17:47 | 58.48999 | 16.33488 | 34472 ft | 384 kts | 220° |
| 2026-05-06 17:47 | 58.46920 | 16.30266 | 34737 ft | 385 kts | 220° |
| 2026-05-06 17:47 | 58.44834 | 16.27040 | 34996 ft | 387 kts | 220° |
| 2026-05-06 17:47 | 58.42734 | 16.23802 | 35258 ft | 389 kts | 220° |
| 2026-05-06 17:48 | 58.40622 | 16.20556 | 35515 ft | 391 kts | 220° |
| 2026-05-06 17:48 | 58.38504 | 16.17305 | 35770 ft | 392 kts | 220° |
| 2026-05-06 17:48 | 58.36372 | 16.14036 | 36017 ft | 394 kts | 220° |
| 2026-05-06 17:48 | 58.34234 | 16.10757 | 36258 ft | 395 kts | 221° |
| 2026-05-06 17:49 | 58.32088 | 16.07469 | 36519 ft | 397 kts | 221° |
| 2026-05-06 17:49 | 58.29935 | 16.04173 | 36741 ft | 398 kts | 221° |
| 2026-05-06 17:49 | 58.27771 | 16.00870 | 36979 ft | 400 kts | 221° |
| 2026-05-06 17:49 | 58.25599 | 15.97566 | 37216 ft | 401 kts | 221° |
| 2026-05-06 17:50 | 58.23416 | 15.94245 | 37441 ft | 402 kts | 221° |
| 2026-05-06 17:50 | 58.21227 | 15.90917 | 37667 ft | 404 kts | 221° |
| 2026-05-06 17:50 | 58.19031 | 15.87585 | 37889 ft | 405 kts | 221° |
| 2026-05-06 17:50 | 58.16824 | 15.84243 | 37975 ft | 408 kts | 221° |
| 2026-05-06 17:51 | 58.12376 | 15.77527 | 37982 ft | 409 kts | 220° |
| 2026-05-06 17:51 | 58.07917 | 15.70824 | 37982 ft | 409 kts | 220° |
| 2026-05-06 17:52 | 58.03453 | 15.64140 | 37979 ft | 410 kts | 220° |
| 2026-05-06 17:52 | 57.98983 | 15.57471 | 37978 ft | 410 kts | 220° |
| 2026-05-06 17:53 | 57.94439 | 15.50966 | 37978 ft | 411 kts | 218° |
| 2026-05-06 17:53 | 57.89809 | 15.44640 | 37981 ft | 411 kts | 218° |
| 2026-05-06 17:54 | 57.85175 | 15.38330 | 37977 ft | 411 kts | 218° |
| 2026-05-06 17:54 | 57.80552 | 15.31996 | 37972 ft | 412 kts | 218° |
| 2026-05-06 17:55 | 57.75933 | 15.25649 | 37983 ft | 412 kts | 218° |
| 2026-05-06 17:55 | 57.71309 | 15.19316 | 37975 ft | 412 kts | 218° |
| 2026-05-06 17:56 | 57.66676 | 15.13003 | 37965 ft | 412 kts | 218° |
| 2026-05-06 17:56 | 57.62068 | 15.06756 | 37961 ft | 412 kts | 218° |
| 2026-05-06 17:57 | 57.57396 | 15.00447 | 37960 ft | 412 kts | 218° |
| 2026-05-06 17:57 | 57.52781 | 14.94227 | 37961 ft | 412 kts | 218° |
| 2026-05-06 17:58 | 57.48129 | 14.87974 | 37956 ft | 413 kts | 218° |
| 2026-05-06 17:58 | 57.43461 | 14.81719 | 37963 ft | 413 kts | 218° |
| 2026-05-06 17:59 | 57.38791 | 14.75494 | 37964 ft | 414 kts | 218° |
| 2026-05-06 17:59 | 57.34112 | 14.69269 | 37965 ft | 414 kts | 218° |
| 2026-05-06 18:00 | 57.29427 | 14.63054 | 37962 ft | 415 kts | 218° |
| 2026-05-06 18:00 | 57.24733 | 14.56856 | 37967 ft | 415 kts | 217° |
| 2026-05-06 18:01 | 57.20042 | 14.50666 | 37967 ft | 415 kts | 218° |
| 2026-05-06 18:01 | 57.15342 | 14.44490 | 37965 ft | 415 kts | 217° |
| 2026-05-06 18:02 | 57.10632 | 14.38331 | 37966 ft | 415 kts | 217° |
| 2026-05-06 18:02 | 57.05927 | 14.32183 | 37963 ft | 415 kts | 217° |
| 2026-05-06 18:03 | 57.01257 | 14.26095 | 37969 ft | 415 kts | 217° |
| 2026-05-06 18:03 | 56.96544 | 14.19988 | 37972 ft | 415 kts | 217° |
| 2026-05-06 18:04 | 56.91826 | 14.13890 | 37971 ft | 415 kts | 217° |
| 2026-05-06 18:04 | 56.87102 | 14.07816 | 37976 ft | 415 kts | 217° |
| 2026-05-06 18:05 | 56.82376 | 14.01735 | 37979 ft | 416 kts | 217° |
| 2026-05-06 18:05 | 56.77643 | 13.95658 | 37979 ft | 416 kts | 217° |
| 2026-05-06 18:06 | 56.72905 | 13.89610 | 37983 ft | 416 kts | 217° |
| 2026-05-06 18:06 | 56.68169 | 13.83574 | 37983 ft | 416 kts | 217° |
| 2026-05-06 18:07 | 56.63423 | 13.77549 | 37979 ft | 416 kts | 217° |
| 2026-05-06 18:07 | 56.58670 | 13.71544 | 37979 ft | 416 kts | 217° |
| 2026-05-06 18:08 | 56.54722 | 13.66571 | 37983 ft | 416 kts | 216° |
| 2026-05-06 18:08 | 56.49964 | 13.60596 | 37982 ft | 416 kts | 216° |
| 2026-05-06 18:09 | 56.45203 | 13.54624 | 37984 ft | 416 kts | 216° |
| 2026-05-06 18:09 | 56.40443 | 13.48666 | 37982 ft | 416 kts | 216° |
| 2026-05-06 18:10 | 56.35675 | 13.42715 | 37983 ft | 417 kts | 216° |
| 2026-05-06 18:10 | 56.30896 | 13.36777 | 37980 ft | 417 kts | 216° |
| 2026-05-06 18:11 | 56.26110 | 13.30856 | 37987 ft | 417 kts | 216° |
| 2026-05-06 18:11 | 56.21316 | 13.24954 | 37985 ft | 418 kts | 216° |
| 2026-05-06 18:12 | 56.16523 | 13.19053 | 37989 ft | 418 kts | 216° |
| 2026-05-06 18:12 | 56.11729 | 13.13160 | 37982 ft | 418 kts | 216° |
| 2026-05-06 18:13 | 56.06922 | 13.07282 | 37981 ft | 418 kts | 216° |
| 2026-05-06 18:13 | 56.02115 | 13.01428 | 37985 ft | 418 kts | 216° |
| 2026-05-06 18:14 | 55.97340 | 12.95619 | 37986 ft | 418 kts | 216° |
| 2026-05-06 18:14 | 55.92503 | 12.89745 | 37986 ft | 418 kts | 216° |
| 2026-05-06 18:15 | 55.87721 | 12.83961 | 37987 ft | 418 kts | 216° |
| 2026-05-06 18:15 | 55.82902 | 12.78169 | 37983 ft | 418 kts | 216° |
| 2026-05-06 18:16 | 55.78081 | 12.72391 | 37979 ft | 418 kts | 216° |
| 2026-05-06 18:16 | 55.73261 | 12.66615 | 37978 ft | 418 kts | 216° |
| 2026-05-06 18:17 | 55.68442 | 12.60853 | 37975 ft | 418 kts | 216° |
| 2026-05-06 18:17 | 55.63611 | 12.55105 | 37976 ft | 418 kts | 215° |
| 2026-05-06 18:18 | 55.58777 | 12.49372 | 37974 ft | 418 kts | 215° |
| 2026-05-06 18:18 | 55.53939 | 12.43642 | 37974 ft | 419 kts | 215° |
| 2026-05-06 18:19 | 55.49094 | 12.37931 | 37975 ft | 419 kts | 215° |
| 2026-05-06 18:19 | 55.44243 | 12.32232 | 37975 ft | 419 kts | 215° |
| 2026-05-06 18:20 | 55.39387 | 12.26544 | 37978 ft | 419 kts | 215° |
| 2026-05-06 18:20 | 55.34529 | 12.20845 | 37980 ft | 420 kts | 215° |
| 2026-05-06 18:21 | 55.29664 | 12.15176 | 37981 ft | 420 kts | 215° |
| 2026-05-06 18:21 | 55.24978 | 12.09746 | 37983 ft | 420 kts | 215° |
| 2026-05-06 18:22 | 55.20097 | 12.04090 | 37973 ft | 421 kts | 215° |
| 2026-05-06 18:22 | 55.15214 | 11.98443 | 37978 ft | 421 kts | 215° |
| 2026-05-06 18:23 | 55.10318 | 11.92808 | 37980 ft | 421 kts | 215° |
| 2026-05-06 18:23 | 55.05425 | 11.87187 | 37939 ft | 422 kts | 215° |
| 2026-05-06 18:24 | 55.02975 | 11.84383 | 37656 ft | 421 kts | 214° |
| 2026-05-06 18:24 | 55.00527 | 11.81589 | 37281 ft | 420 kts | 214° |
| 2026-05-06 18:24 | 54.98085 | 11.78803 | 36662 ft | 419 kts | 214° |
| 2026-05-06 18:24 | 54.95647 | 11.76019 | 36027 ft | 419 kts | 214° |
| 2026-05-06 18:25 | 54.93210 | 11.73240 | 35394 ft | 419 kts | 214° |
| 2026-05-06 18:25 | 54.90768 | 11.70463 | 34762 ft | 419 kts | 214° |
| 2026-05-06 18:25 | 54.88326 | 11.67694 | 34117 ft | 420 kts | 214° |
| 2026-05-06 18:25 | 54.85876 | 11.64918 | 33369 ft | 420 kts | 213° |
| 2026-05-06 18:26 | 54.83422 | 11.62144 | 32635 ft | 420 kts | 213° |
| 2026-05-06 18:26 | 54.81013 | 11.59421 | 32354 ft | 409 kts | 213° |
| 2026-05-06 18:26 | 54.78604 | 11.56700 | 31312 ft | 417 kts | 213° |
| 2026-05-06 18:26 | 54.76159 | 11.53942 | 30419 ft | 421 kts | 213° |
| 2026-05-06 18:27 | 54.73694 | 11.51164 | 29578 ft | 424 kts | 212° |
| 2026-05-06 18:27 | 54.71220 | 11.48382 | 28781 ft | 424 kts | 213° |
| 2026-05-06 18:27 | 54.68750 | 11.45612 | 28007 ft | 422 kts | 213° |
| 2026-05-06 18:27 | 54.66297 | 11.42863 | 27330 ft | 421 kts | 213° |
| 2026-05-06 18:28 | 54.63841 | 11.40112 | 26699 ft | 419 kts | 213° |
| 2026-05-06 18:28 | 54.61405 | 11.37386 | 26076 ft | 416 kts | 213° |
| 2026-05-06 18:28 | 54.59012 | 11.34719 | 25478 ft | 413 kts | 213° |
| 2026-05-06 18:28 | 54.56576 | 11.32014 | 24872 ft | 410 kts | 214° |
| 2026-05-06 18:29 | 54.54203 | 11.29326 | 24297 ft | 407 kts | 215° |
| 2026-05-06 18:29 | 54.51883 | 11.26558 | 23728 ft | 404 kts | 216° |
| 2026-05-06 18:29 | 54.49611 | 11.23757 | 23091 ft | 401 kts | 217° |
| 2026-05-06 18:29 | 54.47393 | 11.20988 | 22456 ft | 397 kts | 217° |
| 2026-05-06 18:30 | 54.45163 | 11.18214 | 21807 ft | 394 kts | 217° |
| 2026-05-06 18:30 | 54.42946 | 11.15483 | 21177 ft | 391 kts | 217° |
| 2026-05-06 18:30 | 54.40738 | 11.12791 | 20549 ft | 388 kts | 216° |
| 2026-05-06 18:30 | 54.38536 | 11.10127 | 19951 ft | 386 kts | 216° |
| 2026-05-06 18:31 | 54.36342 | 11.07485 | 19358 ft | 384 kts | 216° |
| 2026-05-06 18:31 | 54.34161 | 11.04865 | 18768 ft | 383 kts | 216° |
| 2026-05-06 18:31 | 54.31988 | 11.02227 | 18197 ft | 381 kts | 218° |
| 2026-05-06 18:31 | 54.30057 | 10.99201 | 17813 ft | 372 kts | 227° |
| 2026-05-06 18:32 | 54.28439 | 10.95794 | 17305 ft | 367 kts | 232° |
| 2026-05-06 18:32 | 54.26892 | 10.92348 | 16711 ft | 364 kts | 232° |
| 2026-05-06 18:32 | 54.25353 | 10.88937 | 16118 ft | 361 kts | 232° |
| 2026-05-06 18:32 | 54.23822 | 10.85554 | 15514 ft | 358 kts | 232° |
| 2026-05-06 18:33 | 54.22299 | 10.82200 | 14906 ft | 356 kts | 232° |
| 2026-05-06 18:33 | 54.20780 | 10.78866 | 14307 ft | 355 kts | 231° |
| 2026-05-06 18:33 | 54.19270 | 10.75544 | 13710 ft | 353 kts | 232° |
| 2026-05-06 18:33 | 54.17768 | 10.72232 | 13060 ft | 352 kts | 232° |
| 2026-05-06 18:34 | 54.16275 | 10.68944 | 12423 ft | 350 kts | 232° |
| 2026-05-06 18:34 | 54.14798 | 10.65698 | 12028 ft | 342 kts | 232° |
| 2026-05-06 18:34 | 54.13350 | 10.62515 | 11546 ft | 338 kts | 232° |
| 2026-05-06 18:34 | 54.11916 | 10.59364 | 11052 ft | 336 kts | 232° |
| 2026-05-06 18:35 | 54.10479 | 10.56219 | 10896 ft | 337 kts | 232° |
| 2026-05-06 18:35 | 54.09042 | 10.53053 | 10916 ft | 339 kts | 232° |
| 2026-05-06 18:35 | 54.07593 | 10.49868 | 10921 ft | 344 kts | 232° |
| 2026-05-06 18:35 | 54.06121 | 10.46662 | 10916 ft | 341 kts | 232° |
| 2026-05-06 18:36 | 54.04658 | 10.43490 | 10916 ft | 340 kts | 232° |
| 2026-05-06 18:36 | 54.03198 | 10.40331 | 10918 ft | 340 kts | 232° |
| 2026-05-06 18:36 | 54.01738 | 10.37174 | 10917 ft | 340 kts | 232° |
| 2026-05-06 18:36 | 54.00281 | 10.34020 | 10915 ft | 340 kts | 232° |
| 2026-05-06 18:37 | 53.98821 | 10.30860 | 10918 ft | 340 kts | 232° |
| 2026-05-06 18:37 | 53.97922 | 10.28691 | 10913 ft | 340 kts | 239° |
| 2026-05-06 18:37 | 53.96508 | 10.23894 | 10915 ft | 339 kts | 245° |
| 2026-05-06 18:37 | 53.95518 | 10.20356 | 10849 ft | 324 kts | 245° |
| 2026-05-06 18:38 | 53.94565 | 10.16973 | 10731 ft | 311 kts | 245° |
| 2026-05-06 18:38 | 53.93644 | 10.13720 | 10589 ft | 300 kts | 245° |
| 2026-05-06 18:38 | 53.92752 | 10.10585 | 10470 ft | 290 kts | 245° |
| 2026-05-06 18:38 | 53.91897 | 10.07595 | 10350 ft | 281 kts | 245° |
| 2026-05-06 18:39 | 53.91059 | 10.04664 | 10222 ft | 272 kts | 245° |
| 2026-05-06 18:39 | 53.90245 | 10.01821 | 10106 ft | 264 kts | 245° |
| 2026-05-06 18:39 | 53.89455 | 9.99056 | 9910 ft | 259 kts | 245° |
| 2026-05-06 18:40 | 53.87895 | 9.93589 | 9587 ft | 257 kts | 246° |
| 2026-05-06 18:40 | 53.87113 | 9.90860 | 9481 ft | 257 kts | 246° |
| 2026-05-06 18:40 | 53.86332 | 9.88135 | 9360 ft | 257 kts | 246° |
| 2026-05-06 18:40 | 53.85551 | 9.85414 | 9255 ft | 257 kts | 245° |
| 2026-05-06 18:41 | 53.84770 | 9.82693 | 9139 ft | 257 kts | 245° |
| 2026-05-06 18:41 | 53.83989 | 9.79979 | 8971 ft | 256 kts | 245° |
| 2026-05-06 18:41 | 53.83209 | 9.77272 | 8737 ft | 255 kts | 245° |
| 2026-05-06 18:41 | 53.82430 | 9.74570 | 8497 ft | 255 kts | 245° |
| 2026-05-06 18:42 | 53.81653 | 9.71873 | 8256 ft | 255 kts | 245° |
| 2026-05-06 18:42 | 53.80875 | 9.69182 | 8028 ft | 254 kts | 245° |
| 2026-05-06 18:42 | 53.80098 | 9.66500 | 7771 ft | 254 kts | 245° |
| 2026-05-06 18:42 | 53.79323 | 9.63826 | 7518 ft | 253 kts | 245° |
| 2026-05-06 18:43 | 53.78549 | 9.61156 | 7264 ft | 252 kts | 244° |
| 2026-05-06 18:43 | 53.77778 | 9.58495 | 7013 ft | 251 kts | 245° |
| 2026-05-06 18:43 | 53.77009 | 9.55847 | 6762 ft | 251 kts | 245° |
| 2026-05-06 18:43 | 53.76242 | 9.53207 | 6518 ft | 250 kts | 244° |
| 2026-05-06 18:44 | 53.75383 | 9.50663 | 6267 ft | 249 kts | 233° |
| 2026-05-06 18:44 | 53.74215 | 9.48510 | 6003 ft | 248 kts | 219° |
| 2026-05-06 18:44 | 53.72815 | 9.46824 | 5786 ft | 247 kts | 212° |
| 2026-05-06 18:44 | 53.71379 | 9.45229 | 5542 ft | 247 kts | 209° |
| 2026-05-06 18:45 | 53.69806 | 9.44137 | 5309 ft | 244 kts | 190° |
| 2026-05-06 18:45 | 53.68134 | 9.43904 | 5080 ft | 240 kts | 172° |
| 2026-05-06 18:45 | 53.66509 | 9.44435 | 4843 ft | 237 kts | 163° |
| 2026-05-06 18:45 | 53.65447 | 9.44865 | 4702 ft | 237 kts | 163° |
| 2026-05-06 18:46 | 53.63324 | 9.45713 | 4382 ft | 236 kts | 163° |
| 2026-05-06 18:46 | 53.61732 | 9.46343 | 4151 ft | 235 kts | 163° |
| 2026-05-06 18:46 | 53.60141 | 9.46972 | 4022 ft | 235 kts | 163° |
| 2026-05-06 18:46 | 53.58548 | 9.47603 | 4012 ft | 235 kts | 163° |
| 2026-05-06 18:47 | 53.56955 | 9.48229 | 4013 ft | 235 kts | 163° |
| 2026-05-06 18:47 | 53.55359 | 9.48858 | 4014 ft | 235 kts | 163° |
| 2026-05-06 18:47 | 53.53768 | 9.49484 | 4012 ft | 235 kts | 163° |
| 2026-05-06 18:47 | 53.52157 | 9.50042 | 4007 ft | 237 kts | 172° |
| 2026-05-06 18:48 | 53.50506 | 9.49798 | 4009 ft | 242 kts | 193° |
| 2026-05-06 18:48 | 53.48990 | 9.48558 | 4012 ft | 246 kts | 216° |
| 2026-05-06 18:48 | 53.47798 | 9.46501 | 4015 ft | 247 kts | 230° |
| 2026-05-06 18:48 | 53.46687 | 9.44306 | 4011 ft | 246 kts | 224° |
| 2026-05-06 18:49 | 53.45252 | 9.42835 | 4012 ft | 242 kts | 191° |
| 2026-05-06 18:49 | 53.43610 | 9.42800 | 4015 ft | 235 kts | 160° |
| 2026-05-06 18:49 | 53.42254 | 9.44154 | 4013 ft | 225 kts | 127° |
| 2026-05-06 18:49 | 53.41601 | 9.46447 | 4013 ft | 218 kts | 94° |
| 2026-05-06 18:50 | 53.41726 | 9.48957 | 4011 ft | 217 kts | 77° |
| 2026-05-06 18:50 | 53.42077 | 9.51412 | 4012 ft | 217 kts | 74° |
| 2026-05-06 18:50 | 53.42459 | 9.53864 | 4013 ft | 218 kts | 74° |
| 2026-05-06 18:50 | 53.42845 | 9.56314 | 4011 ft | 217 kts | 74° |
| 2026-05-06 18:51 | 53.43258 | 9.58746 | 4008 ft | 217 kts | 67° |
| 2026-05-06 18:51 | 53.44085 | 9.60847 | 4009 ft | 217 kts | 51° |
| 2026-05-06 18:51 | 53.45067 | 9.62777 | 4007 ft | 218 kts | 50° |
| 2026-05-06 18:51 | 53.46029 | 9.64668 | 4003 ft | 206 kts | 51° |
| 2026-05-06 18:52 | 53.46918 | 9.66438 | 4002 ft | 191 kts | 51° |
| 2026-05-06 18:52 | 53.47749 | 9.68096 | 4003 ft | 182 kts | 51° |
| 2026-05-06 18:52 | 53.48549 | 9.69695 | 4033 ft | 173 kts | 51° |
| 2026-05-06 18:52 | 53.49305 | 9.71206 | 3932 ft | 166 kts | 51° |
| 2026-05-06 18:53 | 53.50044 | 9.72685 | 3740 ft | 165 kts | 51° |
| 2026-05-06 18:53 | 53.50531 | 9.73660 | 3602 ft | 164 kts | 51° |
| 2026-05-06 18:53 | 53.51232 | 9.75062 | 3409 ft | 147 kts | 51° |
| 2026-05-06 18:53 | 53.51858 | 9.76316 | 3218 ft | 135 kts | 52° |
| 2026-05-06 18:54 | 53.52453 | 9.77509 | 3036 ft | 132 kts | 51° |
| 2026-05-06 18:54 | 53.53035 | 9.78677 | 2859 ft | 130 kts | 51° |
| 2026-05-06 18:54 | 53.53614 | 9.79839 | 2677 ft | 129 kts | 52° |
| 2026-05-06 18:54 | 53.54191 | 9.80997 | 2502 ft | 129 kts | 51° |
| 2026-05-06 18:55 | 53.54764 | 9.82147 | 2330 ft | 128 kts | 51° |
| 2026-05-06 18:55 | 53.55335 | 9.83296 | 2152 ft | 127 kts | 51° |
| 2026-05-06 18:55 | 53.55903 | 9.84438 | 1969 ft | 127 kts | 52° |
| 2026-05-06 18:55 | 53.56470 | 9.85577 | 1804 ft | 127 kts | 51° |
| 2026-05-06 18:56 | 53.57029 | 9.86701 | 1631 ft | 127 kts | 51° |
| 2026-05-06 18:56 | 53.57593 | 9.87837 | 1453 ft | 126 kts | 51° |
| 2026-05-06 18:56 | 53.58166 | 9.88991 | 1274 ft | 126 kts | 51° |
| 2026-05-06 18:56 | 53.58722 | 9.90111 | 1101 ft | 126 kts | 51° |
| 2026-05-06 18:57 | 53.59285 | 9.91245 | 917 ft | 126 kts | 50° |
| 2026-05-06 18:57 | 53.59848 | 9.92381 | 739 ft | 127 kts | 50° |
| 2026-05-06 18:57 | 53.60416 | 9.93526 | 567 ft | 128 kts | 50° |
| 2026-05-06 18:57 | 53.60984 | 9.94673 | 400 ft | 127 kts | 50° |
| 2026-05-06 18:58 | 53.61551 | 9.95819 | 210 ft | 127 kts | 50° |
| 2026-05-06 18:58 | 53.62111 | 9.96960 | 54 ft | 122 kts | 49° |
| 2026-05-06 18:58 | 53.62573 | 9.97878 | 46 ft | 79 kts | 49° |
| 2026-05-06 18:58 | 53.62861 | 9.98460 | 48 ft | 53 kts | 51° |
| 2026-05-06 18:59 | 53.63073 | 9.98896 | 48 ft | 45 kts | 50° |
| 2026-05-06 18:59 | 53.63252 | 9.99249 | 52 ft | 27 kts | 50° |
| 2026-05-06 18:59 | 53.63294 | 9.99462 | 49 ft | 19 kts | 87° |
| 2026-05-06 18:59 | 53.63281 | 9.99613 | 49 ft | 10 kts | 99° |
| 2026-05-06 19:00 | 53.63276 | 9.99663 | 49 ft | 5 kts | 99° |
| 2026-05-06 19:00 | 53.63275 | 9.99672 | 49 ft | 0 kts | 99° |
| 2026-05-06 19:01 | 53.63274 | 9.99687 | 49 ft | 3 kts | 99° |
| 2026-05-06 19:01 | 53.63277 | 9.99745 | 49 ft | 7 kts | 71° |
| 2026-05-06 19:02 | 53.63310 | 9.99826 | 49 ft | 10 kts | 51° |
| 2026-05-06 19:02 | 53.63362 | 9.99928 | 50 ft | 13 kts | 51° |
| 2026-05-06 19:02 | 53.63417 | 10.00041 | 49 ft | 9 kts | 51° |
| 2026-05-06 19:02 | 53.63451 | 10.00112 | 51 ft | 1 kts | 52° |
| 2026-05-06 19:03 | 53.63455 | 10.00150 | 51 ft | 6 kts | 87° |
| 2026-05-06 19:03 | 53.63452 | 10.00243 | 52 ft | 10 kts | 93° |
| 2026-05-06 19:03 | 53.63451 | 10.00312 | 52 ft | 2 kts | 87° |
| 2026-05-06 19:03 | 53.63452 | 10.00329 | 52 ft | 0 kts | 86° |